Time;durP1;ratioP1;P1;durP2;ratioP2;P2;SDS_P1;SDS_P2;PMS_P1;PMS_P2;Temp;Humidity;BMP_temperature;BMP_pressure;BME280_temperature;BME280_humidity;BME280_pressure;Samples;Min_cycle;Max_cycle;Signal;HPM_P1;HPM_P2
2021/06/23 00:01:45;;;;;;;19.77;6.38;;;;;;;;;;5074263;28;20021;-59
2021/06/23 00:04:11;;;;;;;22.10;7.90;;;;;;;;;;5074066;28;20476;-63
2021/06/23 00:06:37;;;;;;;17.10;5.68;;;;;;;;;;5072707;28;20403;-59
2021/06/23 00:09:04;;;;;;;20.17;6.70;;;;;;;;;;5090784;28;20074;-60
2021/06/23 00:11:52;;;;;;;24.60;7.45;;;;;;;;;;5092795;28;20418;-59
2021/06/23 00:14:19;;;;;;;20.83;7.32;;;;;;;;;;5092878;28;20364;-60
2021/06/23 00:16:45;;;;;;;17.65;6.20;;;;;;;;;;5093708;28;20026;-61
2021/06/23 00:19:11;;;;;;;19.17;7.15;;;;;;;;;;5092902;28;20413;-60
2021/06/23 00:21:38;;;;;;;17.55;6.40;;;;;;;;;;5093917;28;20197;-59
2021/06/23 00:24:04;;;;;;;15.18;6.57;;;;;;;;;;5093667;28;20020;-60
2021/06/23 00:26:34;;;;;;;18.52;6.30;;;;;;;;;;5093807;28;20099;-59
2021/06/23 00:29:00;;;;;;;21.80;6.95;;;;;;;;;;5093548;28;20028;-59
2021/06/23 00:31:29;;;;;;;16.15;5.95;;;;;;;;;;5093630;28;20521;-62
2021/06/23 00:33:56;;;;;;;15.38;6.30;;;;;;;;;;5093451;28;20460;-59
2021/06/23 00:36:23;;;;;;;23.00;7.07;;;;;;;;;;5093435;28;20375;-59
2021/06/23 00:38:49;;;;;;;18.73;6.45;;;;;;;;;;5093270;28;20020;-63
2021/06/23 00:41:19;;;;;;;20.77;6.80;;;;;;;;;;5093327;28;20047;-62
2021/06/23 00:43:46;;;;;;;17.98;6.53;;;;;;;;;;5093378;28;20027;-59
2021/06/23 00:46:12;;;;;;;14.48;6.45;;;;;;;;;;5093416;28;20023;-60
2021/06/23 00:48:38;;;;;;;16.77;6.30;;;;;;;;;;5093303;28;20020;-60
2021/06/23 00:51:05;;;;;;;17.00;6.43;;;;;;;;;;5093117;28;20032;-60
2021/06/23 00:53:31;;;;;;;18.98;7.18;;;;;;;;;;5093161;28;20031;-60
2021/06/23 00:55:58;;;;;;;16.58;7.00;;;;;;;;;;5092946;28;20132;-59
2021/06/23 00:58:25;;;;;;;17.15;6.40;;;;;;;;;;5092800;28;20078;-60
2021/06/23 01:00:52;;;;;;;18.10;6.45;;;;;;;;;;5093009;28;20069;-63
2021/06/23 01:03:18;;;;;;;21.20;7.43;;;;;;;;;;5092925;28;20498;-59
2021/06/23 01:05:45;;;;;;;15.77;6.15;;;;;;;;;;5092946;28;20020;-60
2021/06/23 01:08:11;;;;;;;16.50;6.50;;;;;;;;;;5086026;28;20495;-60
2021/06/23 01:10:37;;;;;;;20.85;6.68;;;;;;;;;;5071269;28;20066;-59
2021/06/23 01:13:22;;;;;;;19.50;6.95;;;;;;;;;;5072470;28;20537;-60
2021/06/23 01:15:49;;;;;;;16.90;6.28;;;;;;;;;;5071239;28;20163;-59
2021/06/23 01:18:15;;;;;;;20.67;6.82;;;;;;;;;;5072617;28;20410;-59
2021/06/23 01:20:42;;;;;;;14.52;6.18;;;;;;;;;;5071055;28;20360;-59
2021/06/23 01:23:09;;;;;;;16.85;7.68;;;;;;;;;;5072393;28;20027;-60
2021/06/23 01:25:35;;;;;;;16.27;6.35;;;;;;;;;;5072378;28;20031;-60
2021/06/23 01:28:01;;;;;;;19.77;7.10;;;;;;;;;;5072345;28;20021;-59
2021/06/23 01:30:27;;;;;;;20.67;6.70;;;;;;;;;;5072358;28;20017;-61
2021/06/23 01:32:53;;;;;;;21.38;6.70;;;;;;;;;;5072163;28;20020;-60
2021/06/23 01:35:19;;;;;;;20.25;6.90;;;;;;;;;;5072010;28;20036;-60
2021/06/23 01:37:45;;;;;;;21.60;7.45;;;;;;;;;;5071836;28;20024;-60
2021/06/23 01:40:12;;;;;;;17.65;6.82;;;;;;;;;;5071512;28;20075;-59
2021/06/23 01:42:38;;;;;;;20.83;6.82;;;;;;;;;;5072142;28;20024;-60
2021/06/23 01:45:05;;;;;;;21.00;6.63;;;;;;;;;;5072074;28;20016;-59
2021/06/23 01:47:31;;;;;;;22.67;6.97;;;;;;;;;;5072175;28;20202;-60
2021/06/23 01:49:59;;;;;;;18.90;6.95;;;;;;;;;;5072432;28;20024;-59
2021/06/23 01:52:25;;;;;;;20.98;7.85;;;;;;;;;;5071888;28;20036;-59
2021/06/23 01:54:52;;;;;;;21.33;7.50;;;;;;;;;;5072251;28;20028;-60
2021/06/23 01:57:18;;;;;;;19.92;7.88;;;;;;;;;;5071545;28;20119;-61
2021/06/23 01:59:45;;;;;;;19.27;7.78;;;;;;;;;;5071792;28;20029;-60
2021/06/23 02:02:18;;;;;;;17.95;6.35;;;;;;;;;;5071942;28;20383;-60
2021/06/23 02:05:13;;;;;;;23.70;7.78;;;;;;;;;;5072070;28;20104;-60
2021/06/23 02:07:42;;;;;;;22.45;8.15;;;;;;;;;;5034253;28;20121;-61
2021/06/23 02:10:11;;;;;;;17.67;7.55;;;;;;;;;;5071873;28;20564;-59
2021/06/23 02:12:56;;;;;;;13.82;6.93;;;;;;;;;;5071899;28;20031;-59
2021/06/23 02:15:22;;;;;;;16.58;7.80;;;;;;;;;;5071738;28;20037;-60
2021/06/23 02:17:49;;;;;;;19.75;7.65;;;;;;;;;;5070556;28;20054;-59
2021/06/23 02:20:17;;;;;;;24.08;7.60;;;;;;;;;;5071868;28;20471;-59
2021/06/23 02:22:44;;;;;;;21.35;7.30;;;;;;;;;;5071573;28;20020;-60
2021/06/23 02:25:11;;;;;;;20.40;8.05;;;;;;;;;;5071504;28;20077;-60
2021/06/23 02:27:41;;;;;;;24.05;7.47;;;;;;;;;;5071686;28;20020;-60
2021/06/23 02:30:09;;;;;;;15.75;7.55;;;;;;;;;;5071498;28;20025;-60
2021/06/23 02:32:36;;;;;;;18.90;8.65;;;;;;;;;;5070282;28;20020;-60
2021/06/23 02:35:03;;;;;;;16.40;8.20;;;;;;;;;;5071526;28;20033;-59
2021/06/23 02:37:30;;;;;;;20.88;8.77;;;;;;;;;;5071277;28;20383;-60
2021/06/23 02:39:57;;;;;;;22.17;8.93;;;;;;;;;;5071426;28;20029;-60
2021/06/23 02:42:23;;;;;;;21.60;8.68;;;;;;;;;;5071484;28;20086;-59
2021/06/23 02:44:49;;;;;;;20.60;8.05;;;;;;;;;;5071425;28;20020;-59
2021/06/23 02:47:17;;;;;;;22.15;8.98;;;;;;;;;;5070539;28;20376;-60
2021/06/23 02:49:43;;;;;;;22.52;8.50;;;;;;;;;;5071502;28;20020;-60
2021/06/23 02:52:09;;;;;;;21.63;8.10;;;;;;;;;;5071801;28;20510;-60
2021/06/23 02:54:35;;;;;;;20.42;7.65;;;;;;;;;;5075129;28;20040;-59
2021/06/23 02:57:01;;;;;;;24.20;8.15;;;;;;;;;;5074802;28;20492;-59
2021/06/23 02:59:28;;;;;;;18.33;7.68;;;;;;;;;;5075020;28;20043;-59
2021/06/23 03:01:54;;;;;;;24.95;8.63;;;;;;;;;;5075027;28;20028;-59
2021/06/23 03:04:20;;;;;;;15.85;7.45;;;;;;;;;;5075233;28;20032;-63
2021/06/23 03:06:46;;;;;;;19.55;7.80;;;;;;;;;;5075087;28;20020;-60
2021/06/23 03:09:13;;;;;;;21.52;7.72;;;;;;;;;;5075057;28;20495;-60
2021/06/23 03:11:39;;;;;;;18.80;7.78;;;;;;;;;;5074806;28;20020;-59
2021/06/23 03:14:06;;;;;;;15.77;7.43;;;;;;;;;;5074707;28;20056;-60
2021/06/23 03:16:32;;;;;;;21.80;8.93;;;;;;;;;;5075314;28;20029;-60
2021/06/23 03:18:58;;;;;;;20.55;8.48;;;;;;;;;;5074671;28;20025;-60
2021/06/23 03:21:25;;;;;;;19.85;8.30;;;;;;;;;;5074725;28;20036;-60
2021/06/23 03:23:51;;;;;;;16.92;7.50;;;;;;;;;;5074741;28;20039;-60
2021/06/23 03:26:18;;;;;;;21.70;8.65;;;;;;;;;;5074589;28;20422;-60
2021/06/23 03:28:44;;;;;;;17.27;7.95;;;;;;;;;;5074529;28;20356;-59
2021/06/23 03:31:11;;;;;;;16.95;7.30;;;;;;;;;;5074466;28;20105;-61
2021/06/23 03:33:38;;;;;;;18.38;7.18;;;;;;;;;;5074281;28;20021;-59
2021/06/23 03:36:04;;;;;;;24.08;8.05;;;;;;;;;;5073068;28;20029;-60
2021/06/23 03:38:30;;;;;;;16.98;7.47;;;;;;;;;;5074340;28;20020;-60
2021/06/23 03:40:56;;;;;;;20.98;7.90;;;;;;;;;;5073084;28;20028;-59
2021/06/23 03:43:22;;;;;;;21.25;7.07;;;;;;;;;;5074573;28;20478;-60
2021/06/23 03:45:49;;;;;;;17.70;7.25;;;;;;;;;;5074296;28;20035;-60
2021/06/23 03:48:15;;;;;;;20.85;7.32;;;;;;;;;;5074239;28;20040;-59
2021/06/23 03:50:44;;;;;;;14.52;7.47;;;;;;;;;;5074432;28;20060;-60
2021/06/23 03:53:11;;;;;;;17.70;6.72;;;;;;;;;;5073657;28;20024;-60
2021/06/23 03:55:37;;;;;;;18.27;7.40;;;;;;;;;;5073889;28;20032;-60
2021/06/23 03:58:03;;;;;;;14.05;7.18;;;;;;;;;;5073942;28;20025;-60
2021/06/23 04:00:29;;;;;;;19.05;7.15;;;;;;;;;;5073969;28;20033;-63
2021/06/23 04:02:56;;;;;;;22.77;7.38;;;;;;;;;;5073693;28;20020;-60
2021/06/23 04:05:22;;;;;;;15.27;7.10;;;;;;;;;;5074122;28;20047;-60
2021/06/23 04:07:48;;;;;;;17.65;6.43;;;;;;;;;;5073787;28;20426;-60
2021/06/23 04:10:15;;;;;;;19.73;6.45;;;;;;;;;;5074150;28;20089;-60
2021/06/23 04:12:41;;;;;;;22.23;7.55;;;;;;;;;;5074055;28;20122;-60
2021/06/23 04:15:08;;;;;;;16.83;7.05;;;;;;;;;;5072468;28;20479;-59
2021/06/23 04:17:34;;;;;;;19.88;6.90;;;;;;;;;;5072335;28;20032;-61
2021/06/23 04:20:01;;;;;;;19.05;7.47;;;;;;;;;;5073708;28;20099;-59
2021/06/23 04:22:27;;;;;;;17.95;6.97;;;;;;;;;;5073604;28;20107;-60
2021/06/23 04:24:53;;;;;;;19.83;7.82;;;;;;;;;;5073563;28;20028;-59
2021/06/23 04:27:23;;;;;;;20.98;7.55;;;;;;;;;;5071916;28;20112;-59
2021/06/23 04:29:50;;;;;;;17.58;7.68;;;;;;;;;;5073641;28;20025;-60
2021/06/23 04:32:16;;;;;;;18.45;7.55;;;;;;;;;;5073496;28;20098;-60
2021/06/23 04:34:42;;;;;;;16.02;7.53;;;;;;;;;;5073494;28;20032;-59
2021/06/23 04:37:08;;;;;;;21.08;8.30;;;;;;;;;;5073215;28;20066;-60
2021/06/23 04:39:34;;;;;;;22.73;7.20;;;;;;;;;;5073164;28;20384;-61
2021/06/23 04:42:00;;;;;;;17.40;7.68;;;;;;;;;;5073091;28;20032;-59
2021/06/23 04:44:26;;;;;;;16.13;7.45;;;;;;;;;;5073321;28;20356;-60
2021/06/23 04:46:52;;;;;;;20.02;7.90;;;;;;;;;;5073051;28;20016;-60
2021/06/23 04:49:19;;;;;;;17.38;7.40;;;;;;;;;;5073071;28;20067;-60
2021/06/23 04:51:45;;;;;;;19.38;7.88;;;;;;;;;;5073104;28;20023;-59
2021/06/23 04:54:11;;;;;;;22.33;8.25;;;;;;;;;;5072985;28;20062;-61
2021/06/23 04:56:37;;;;;;;18.10;7.30;;;;;;;;;;5072688;28;20070;-59
2021/06/23 04:59:03;;;;;;;18.20;8.10;;;;;;;;;;5072761;28;20078;-60
2021/06/23 05:01:30;;;;;;;16.65;8.13;;;;;;;;;;5082560;28;20086;-60
2021/06/23 05:03:56;;;;;;;23.25;8.15;;;;;;;;;;5091792;28;20031;-59
2021/06/23 05:06:22;;;;;;;20.52;8.05;;;;;;;;;;5091697;28;20471;-60
2021/06/23 05:08:48;;;;;;;21.42;7.97;;;;;;;;;;5092730;28;20025;-59
2021/06/23 05:11:14;;;;;;;18.27;8.02;;;;;;;;;;5092829;28;20035;-62
2021/06/23 05:13:40;;;;;;;16.33;7.85;;;;;;;;;;5093053;28;20020;-60
2021/06/23 05:16:07;;;;;;;20.73;8.30;;;;;;;;;;5091836;28;20044;-60
2021/06/23 05:18:34;;;;;;;15.65;8.05;;;;;;;;;;5092528;28;20020;-60
2021/06/23 05:21:01;;;;;;;18.83;8.00;;;;;;;;;;5092588;28;20023;-60
2021/06/23 05:23:27;;;;;;;19.08;8.05;;;;;;;;;;5092634;28;20025;-60
2021/06/23 05:25:53;;;;;;;20.85;8.25;;;;;;;;;;5092743;28;20035;-60
2021/06/23 05:28:19;;;;;;;20.33;9.00;;;;;;;;;;5090967;28;20069;-61
2021/06/23 05:30:45;;;;;;;15.90;7.78;;;;;;;;;;5092755;28;20024;-60
2021/06/23 05:33:11;;;;;;;19.48;7.72;;;;;;;;;;5092372;28;20020;-60
2021/06/23 05:35:37;;;;;;;20.88;8.30;;;;;;;;;;5092373;28;20038;-60
2021/06/23 05:38:03;;;;;;;16.58;7.47;;;;;;;;;;5092030;28;20031;-60
2021/06/23 05:40:29;;;;;;;23.67;8.52;;;;;;;;;;5092407;28;20542;-60
2021/06/23 05:42:56;;;;;;;19.30;8.15;;;;;;;;;;5092288;28;20036;-60
2021/06/23 05:45:22;;;;;;;15.27;7.57;;;;;;;;;;5092465;28;20027;-60
2021/06/23 05:47:48;;;;;;;22.23;7.82;;;;;;;;;;5092357;28;20032;-59
2021/06/23 05:50:14;;;;;;;19.75;9.30;;;;;;;;;;5092525;28;20020;-60
2021/06/23 05:52:40;;;;;;;17.27;7.53;;;;;;;;;;5092391;28;20550;-63
2021/06/23 05:55:06;;;;;;;15.85;7.25;;;;;;;;;;5092475;28;20044;-60
2021/06/23 05:57:32;;;;;;;17.83;7.63;;;;;;;;;;5092116;28;20036;-59
2021/06/23 05:59:58;;;;;;;20.02;8.18;;;;;;;;;;5092256;28;20032;-60
2021/06/23 06:02:24;;;;;;;19.48;8.15;;;;;;;;;;5091329;28;20405;-61
2021/06/23 06:04:50;;;;;;;17.08;8.10;;;;;;;;;;5092264;28;20108;-61
2021/06/23 06:07:16;;;;;;;17.90;8.80;;;;;;;;;;5091927;28;20028;-59
2021/06/23 06:09:43;;;;;;;21.83;8.18;;;;;;;;;;5091952;28;20544;-60
2021/06/23 06:12:09;;;;;;;20.40;8.20;;;;;;;;;;5091974;28;20027;-61
2021/06/23 06:14:35;;;;;;;22.00;8.52;;;;;;;;;;5092001;28;20040;-59
2021/06/23 06:17:01;;;;;;;20.08;7.97;;;;;;;;;;5090668;28;20450;-60
2021/06/23 06:19:27;;;;;;;17.13;7.60;;;;;;;;;;5092150;28;20034;-62
2021/06/23 06:21:54;;;;;;;16.55;8.00;;;;;;;;;;5091966;28;20483;-60
2021/06/23 06:24:20;;;;;;;16.33;7.80;;;;;;;;;;5091763;28;20020;-60
2021/06/23 06:26:46;;;;;;;19.00;8.77;;;;;;;;;;5093395;28;20035;-60
2021/06/23 06:29:12;;;;;;;19.15;7.95;;;;;;;;;;5095899;28;20506;-60
2021/06/23 06:31:39;;;;;;;16.73;7.80;;;;;;;;;;5095993;28;20039;-60
2021/06/23 06:34:05;;;;;;;21.27;8.73;;;;;;;;;;5094498;28;20079;-60
2021/06/23 06:36:31;;;;;;;17.95;8.52;;;;;;;;;;5096126;28;20028;-61
2021/06/23 06:38:57;;;;;;;19.65;8.15;;;;;;;;;;5095946;28;20020;-61
2021/06/23 06:41:23;;;;;;;20.42;8.30;;;;;;;;;;5095882;28;20417;-61
2021/06/23 06:43:49;;;;;;;19.05;8.27;;;;;;;;;;5095901;28;20031;-60
2021/06/23 06:46:15;;;;;;;17.60;8.00;;;;;;;;;;5095848;28;20016;-60
2021/06/23 06:48:41;;;;;;;20.92;7.82;;;;;;;;;;5095680;28;20475;-60
2021/06/23 06:51:08;;;;;;;18.95;7.95;;;;;;;;;;5095623;28;20051;-60
2021/06/23 06:53:34;;;;;;;18.38;7.88;;;;;;;;;;5095779;28;20028;-60
2021/06/23 06:56:00;;;;;;;23.02;8.88;;;;;;;;;;5095206;28;20535;-60
2021/06/23 06:58:26;;;;;;;19.83;7.40;;;;;;;;;;5095201;28;20032;-60
2021/06/23 07:00:52;;;;;;;19.00;7.38;;;;;;;;;;5095149;28;20107;-60
2021/06/23 07:03:18;;;;;;;20.10;7.72;;;;;;;;;;5095640;28;20096;-60
2021/06/23 07:05:44;;;;;;;20.02;7.80;;;;;;;;;;5095472;28;20016;-60
2021/06/23 07:08:10;;;;;;;20.67;8.48;;;;;;;;;;5095613;28;20063;-60
2021/06/23 07:10:36;;;;;;;18.10;7.97;;;;;;;;;;5094220;28;20024;-60
2021/06/23 07:13:03;;;;;;;23.50;7.82;;;;;;;;;;5095336;28;20020;-59
2021/06/23 07:15:29;;;;;;;19.73;8.25;;;;;;;;;;5094996;28;20028;-60
2021/06/23 07:17:55;;;;;;;15.23;6.95;;;;;;;;;;5095118;28;20020;-59
2021/06/23 07:20:21;;;;;;;17.65;7.30;;;;;;;;;;5095113;28;20048;-60
2021/06/23 07:22:48;;;;;;;17.52;7.30;;;;;;;;;;5095133;28;20084;-60
2021/06/23 07:25:14;;;;;;;19.35;6.82;;;;;;;;;;5094985;28;20491;-60
2021/06/23 07:27:40;;;;;;;22.65;7.35;;;;;;;;;;5093574;28;20022;-62
2021/06/23 07:30:06;;;;;;;19.17;7.43;;;;;;;;;;5094961;28;20042;-60
2021/06/23 07:32:45;;;;;;;20.02;7.45;;;;;;;;;;5094870;28;20485;-60
2021/06/23 07:37:56;;;;;;;21.73;7.75;;;;;;;;;;5093863;28;20163;-60
2021/06/23 07:40:39;;;;;;;17.85;7.47;;;;;;;;;;5094860;28;20099;-60
2021/06/23 07:43:06;;;;;;;17.60;7.00;;;;;;;;;;5094829;28;20012;-61
2021/06/23 07:45:32;;;;;;;18.15;7.35;;;;;;;;;;5094710;28;20375;-60
2021/06/23 07:47:58;;;;;;;21.90;7.75;;;;;;;;;;5094644;28;20103;-59
2021/06/23 07:50:24;;;;;;;13.38;7.07;;;;;;;;;;5094612;28;20028;-59
2021/06/23 07:53:04;;;;;;;21.90;7.22;;;;;;;;;;5094520;28;20024;-59
2021/06/23 07:55:47;;;;;;;21.05;6.88;;;;;;;;;;5094294;28;20043;-60
2021/06/23 08:09:23;;;;;;;17.92;7.13;;;;;;;;;;5093941;28;20086;-59
2021/06/23 08:11:53;;;;;;;21.48;7.82;;;;;;;;;;5092562;28;20081;-60
2021/06/23 08:14:19;;;;;;;21.13;7.88;;;;;;;;;;5094452;28;20016;-60
2021/06/23 08:16:48;;;;;;;18.52;6.90;;;;;;;;;;5093062;28;20044;-61
2021/06/23 08:19:14;;;;;;;17.70;6.88;;;;;;;;;;5093936;28;20012;-60
2021/06/23 08:21:40;;;;;;;18.35;7.20;;;;;;;;;;5094149;28;20034;-60
2021/06/23 08:24:06;;;;;;;16.13;7.22;;;;;;;;;;5093966;28;20024;-60
2021/06/23 08:26:32;;;;;;;19.98;6.95;;;;;;;;;;5094321;28;20617;-60
2021/06/23 08:28:58;;;;;;;22.17;6.78;;;;;;;;;;5094135;28;20020;-60
2021/06/23 08:31:24;;;;;;;18.70;7.05;;;;;;;;;;5093898;28;20081;-60
2021/06/23 08:33:53;;;;;;;18.52;6.80;;;;;;;;;;5093916;28;20475;-61
2021/06/23 08:36:19;;;;;;;16.33;6.47;;;;;;;;;;5093686;28;20036;-62
2021/06/23 08:38:45;;;;;;;21.60;7.50;;;;;;;;;;5093529;28;20107;-60
2021/06/23 08:41:11;;;;;;;16.90;6.53;;;;;;;;;;5093694;28;20077;-60
2021/06/23 08:43:37;;;;;;;19.75;6.32;;;;;;;;;;5093898;28;20050;-59
2021/06/23 08:46:03;;;;;;;16.45;6.47;;;;;;;;;;5093611;28;20028;-60
2021/06/23 08:48:31;;;;;;;14.35;6.40;;;;;;;;;;5093451;28;20020;-60
2021/06/23 08:51:01;;;;;;;17.98;6.75;;;;;;;;;;5093483;28;20028;-60
2021/06/23 08:53:27;;;;;;;23.02;6.97;;;;;;;;;;5093297;28;20024;-60
2021/06/23 08:55:53;;;;;;;15.32;5.88;;;;;;;;;;5093288;28;20402;-60
2021/06/23 08:58:19;;;;;;;22.83;7.60;;;;;;;;;;5092885;28;20105;-60
2021/06/23 09:00:45;;;;;;;17.85;6.50;;;;;;;;;;5093171;28;20505;-60
2021/06/23 09:03:11;;;;;;;21.45;6.90;;;;;;;;;;5093189;28;20020;-60
2021/06/23 09:05:47;;;;;;;20.33;5.95;;;;;;;;;;5093163;28;20022;-63
2021/06/23 09:08:13;;;;;;;17.52;6.20;;;;;;;;;;5093052;28;20275;-60
2021/06/23 09:10:40;;;;;;;15.35;5.85;;;;;;;;;;5093122;28;20020;-59
2021/06/23 09:13:09;;;;;;;16.65;5.75;;;;;;;;;;5092944;28;20102;-63
2021/06/23 09:15:46;;;;;;;15.52;6.00;;;;;;;;;;5092914;28;20032;-60
2021/06/23 09:18:22;;;;;;;13.50;6.03;;;;;;;;;;5092613;28;20027;-60
2021/06/23 09:20:50;;;;;;;18.25;6.32;;;;;;;;;;5093025;28;20028;-60
2021/06/23 09:23:16;;;;;;;15.40;5.90;;;;;;;;;;5091303;28;20073;-60
2021/06/23 09:25:46;;;;;;;21.02;6.15;;;;;;;;;;5092588;28;20123;-60
2021/06/23 09:28:16;;;;;;;14.82;6.25;;;;;;;;;;5092715;28;20073;-60
2021/06/23 09:30:44;;;;;;;24.83;6.85;;;;;;;;;;5092859;28;20020;-60
2021/06/23 09:33:12;;;;;;;22.88;6.82;;;;;;;;;;5092477;28;20081;-60
2021/06/23 09:35:39;;;;;;;22.35;6.68;;;;;;;;;;5092288;28;20115;-60
2021/06/23 09:38:05;;;;;;;22.83;6.65;;;;;;;;;;5092421;28;20113;-60
2021/06/23 09:40:32;;;;;;;15.25;6.80;;;;;;;;;;5092318;28;20103;-60
2021/06/23 09:43:02;;;;;;;16.65;5.55;;;;;;;;;;5092219;28;20027;-60
2021/06/23 09:45:29;;;;;;;17.15;6.53;;;;;;;;;;5092504;28;20119;-60
2021/06/23 09:48:09;;;;;;;13.25;6.45;;;;;;;;;;5091993;28;20103;-59
2021/06/23 09:50:39;;;;;;;15.07;6.40;;;;;;;;;;5092100;28;20013;-62
2021/06/23 09:53:09;;;;;;;19.75;7.57;;;;;;;;;;5092363;28;20027;-62
2021/06/23 09:55:39;;;;;;;19.17;7.05;;;;;;;;;;5092070;28;20024;-61
2021/06/23 09:58:13;;;;;;;21.17;6.82;;;;;;;;;;5091785;28;20044;-60
2021/06/23 10:00:58;;;;;;;19.08;7.22;;;;;;;;;;5092166;28;20293;-61
2021/06/23 10:03:25;;;;;;;16.70;6.50;;;;;;;;;;5092207;28;20059;-60
2021/06/23 10:05:51;;;;;;;16.08;6.47;;;;;;;;;;5092134;28;20027;-60
2021/06/23 10:08:21;;;;;;;15.10;6.40;;;;;;;;;;5092313;28;20028;-60
2021/06/23 10:10:47;;;;;;;13.82;5.93;;;;;;;;;;5092096;28;20042;-60
2021/06/23 10:13:14;;;;;;;27.52;6.43;;;;;;;;;;5091876;28;20407;-60
2021/06/23 10:15:41;;;;;;;12.02;5.82;;;;;;;;;;5091735;28;20051;-60
2021/06/23 10:18:07;;;;;;;16.67;7.00;;;;;;;;;;5091854;28;20023;-60
2021/06/23 10:20:33;;;;;;;14.93;6.07;;;;;;;;;;5092036;28;20020;-60
2021/06/23 10:23:00;;;;;;;13.05;7.20;;;;;;;;;;5091961;28;20533;-60
2021/06/23 10:25:27;;;;;;;20.83;7.38;;;;;;;;;;5090581;28;20115;-60
2021/06/23 10:27:54;;;;;;;21.15;6.78;;;;;;;;;;5091784;28;20024;-60
2021/06/23 10:30:20;;;;;;;12.52;6.55;;;;;;;;;;5091740;28;20025;-59
2021/06/23 10:32:47;;;;;;;20.75;6.70;;;;;;;;;;5091941;28;20483;-60
2021/06/23 10:35:13;;;;;;;15.88;6.63;;;;;;;;;;5091819;28;20063;-61
2021/06/23 10:37:40;;;;;;;19.98;6.82;;;;;;;;;;5091659;28;20020;-59
2021/06/23 10:40:07;;;;;;;22.73;6.45;;;;;;;;;;5090636;28;20479;-60
2021/06/23 10:42:33;;;;;;;13.70;6.05;;;;;;;;;;5092180;28;20085;-60
2021/06/23 10:44:59;;;;;;;17.05;6.65;;;;;;;;;;5091818;28;20475;-61
2021/06/23 10:47:41;;;;;;;16.58;6.60;;;;;;;;;;5091509;28;20024;-60
2021/06/23 10:50:26;;;;;;;18.10;6.07;;;;;;;;;;5091603;28;20089;-62
2021/06/23 10:52:52;;;;;;;15.65;6.30;;;;;;;;;;5090404;28;20273;-60
2021/06/23 10:55:21;;;;;;;16.83;5.65;;;;;;;;;;5091635;28;20145;-61
2021/06/23 10:57:48;;;;;;;14.45;5.90;;;;;;;;;;5091499;28;20499;-61
2021/06/23 11:00:17;;;;;;;18.63;6.55;;;;;;;;;;5091573;28;20047;-60
2021/06/23 11:02:46;;;;;;;14.02;5.82;;;;;;;;;;5091466;28;20543;-60
2021/06/23 11:05:15;;;;;;;16.00;5.85;;;;;;;;;;5091821;28;20016;-60
2021/06/23 11:07:45;;;;;;;15.68;5.85;;;;;;;;;;5091921;28;20163;-59
2021/06/23 11:10:11;;;;;;;17.55;5.80;;;;;;;;;;5091502;28;20027;-60
2021/06/23 11:12:43;;;;;;;21.20;6.40;;;;;;;;;;5091605;28;20387;-59
2021/06/23 11:15:17;;;;;;;19.15;5.65;;;;;;;;;;5095141;28;20044;-60
2021/06/23 11:17:43;;;;;;;13.27;5.53;;;;;;;;;;5095313;28;20028;-60
2021/06/23 11:20:19;;;;;;;14.43;4.55;;;;;;;;;;5095233;28;20028;-60
2021/06/23 11:22:49;;;;;;;11.90;5.20;;;;;;;;;;5095093;28;20020;-59
2021/06/23 11:25:22;;;;;;;16.05;4.97;;;;;;;;;;5094931;28;20082;-60
2021/06/23 11:28:08;;;;;;;14.70;4.78;;;;;;;;;;5094790;28;20024;-60
2021/06/23 11:30:43;;;;;;;12.43;5.68;;;;;;;;;;5094701;28;20099;-60
2021/06/23 11:33:27;;;;;;;13.15;5.40;;;;;;;;;;5094948;28;20084;-60
2021/06/23 11:35:57;;;;;;;16.55;6.10;;;;;;;;;;5094792;28;20093;-60
2021/06/23 11:38:24;;;;;;;12.35;4.20;;;;;;;;;;5094602;28;20099;-60
2021/06/23 11:40:51;;;;;;;13.73;5.65;;;;;;;;;;5094534;28;20024;-60
2021/06/23 11:43:17;;;;;;;15.07;5.40;;;;;;;;;;5094667;28;20502;-60
2021/06/23 11:45:43;;;;;;;15.02;5.60;;;;;;;;;;5094976;28;20027;-59
2021/06/23 11:48:09;;;;;;;13.57;5.53;;;;;;;;;;5094819;28;20093;-60
2021/06/23 11:50:36;;;;;;;12.38;4.70;;;;;;;;;;5094566;28;20098;-59
2021/06/23 11:53:08;;;;;;;13.38;5.25;;;;;;;;;;5094555;28;20024;-60
2021/06/23 11:55:34;;;;;;;16.52;5.97;;;;;;;;;;5093081;28;20123;-60
2021/06/23 11:58:01;;;;;;;11.60;4.88;;;;;;;;;;5094278;28;20458;-60
2021/06/23 12:00:29;;;;;;;18.00;5.50;;;;;;;;;;5094236;28;20042;-60
2021/06/23 12:02:56;;;;;;;17.92;5.35;;;;;;;;;;5094089;28;20043;-60
2021/06/23 12:05:23;;;;;;;8.80;3.70;;;;;;;;;;5094172;28;20028;-60
2021/06/23 12:07:49;;;;;;;13.52;5.10;;;;;;;;;;5092643;28;20069;-60
2021/06/23 12:10:16;;;;;;;16.70;5.13;;;;;;;;;;5094188;28;20494;-59
2021/06/23 12:12:44;;;;;;;13.38;5.18;;;;;;;;;;5093926;28;20031;-60
2021/06/23 12:15:11;;;;;;;14.85;5.15;;;;;;;;;;5092627;28;20410;-60
2021/06/23 12:17:37;;;;;;;11.25;4.13;;;;;;;;;;5093966;28;20541;-60
2021/06/23 12:20:08;;;;;;;21.35;6.45;;;;;;;;;;5092672;28;20496;-61
2021/06/23 12:22:34;;;;;;;17.98;5.25;;;;;;;;;;5093785;28;20382;-60
2021/06/23 12:25:01;;;;;;;12.10;5.35;;;;;;;;;;5093672;28;20024;-60
2021/06/23 12:27:27;;;;;;;14.63;4.68;;;;;;;;;;5093759;28;20471;-60
2021/06/23 12:29:54;;;;;;;14.70;4.95;;;;;;;;;;5093947;28;20024;-60
2021/06/23 12:32:20;;;;;;;12.65;5.30;;;;;;;;;;5093753;28;20024;-60
2021/06/23 12:34:46;;;;;;;14.23;4.85;;;;;;;;;;5093545;28;20032;-61
2021/06/23 12:37:12;;;;;;;17.42;5.80;;;;;;;;;;5093597;28;20020;-59
2021/06/23 12:39:38;;;;;;;16.80;5.72;;;;;;;;;;5093377;28;20035;-61
2021/06/23 12:42:05;;;;;;;10.60;4.63;;;;;;;;;;5093602;28;20020;-60
2021/06/23 12:44:31;;;;;;;15.05;4.85;;;;;;;;;;5092367;28;20023;-61
2021/06/23 12:46:57;;;;;;;14.05;4.97;;;;;;;;;;5093431;28;20021;-60
2021/06/23 12:49:24;;;;;;;14.32;4.80;;;;;;;;;;5093617;28;20015;-60
2021/06/23 12:51:50;;;;;;;16.48;4.97;;;;;;;;;;5093248;28;20077;-59
2021/06/23 12:54:16;;;;;;;15.52;5.80;;;;;;;;;;5093362;28;20024;-60
2021/06/23 12:56:42;;;;;;;12.55;4.53;;;;;;;;;;5093211;28;20266;-60
2021/06/23 12:59:08;;;;;;;13.73;4.43;;;;;;;;;;5093254;28;20078;-60
2021/06/23 13:01:35;;;;;;;15.45;4.60;;;;;;;;;;5093105;28;20023;-60
2021/06/23 13:04:01;;;;;;;16.30;5.38;;;;;;;;;;5093165;28;20052;-60
2021/06/23 13:06:27;;;;;;;13.10;5.28;;;;;;;;;;5093178;28;20103;-60
2021/06/23 13:08:53;;;;;;;17.83;5.40;;;;;;;;;;5093315;28;20024;-60
2021/06/23 13:11:19;;;;;;;14.68;4.60;;;;;;;;;;5092941;28;20073;-60
2021/06/23 13:13:45;;;;;;;11.60;4.80;;;;;;;;;;5092852;28;20024;-61
2021/06/23 13:16:16;;;;;;;15.15;4.72;;;;;;;;;;5092755;28;20028;-60
2021/06/23 13:18:42;;;;;;;11.70;4.95;;;;;;;;;;5093049;28;20020;-59
2021/06/23 13:21:08;;;;;;;11.30;4.63;;;;;;;;;;5092870;28;20039;-60
2021/06/23 13:23:34;;;;;;;13.38;4.25;;;;;;;;;;5092773;28;20150;-59
2021/06/23 13:26:01;;;;;;;16.05;4.82;;;;;;;;;;5092500;28;20032;-60
2021/06/23 13:28:27;;;;;;;9.55;4.03;;;;;;;;;;5092646;28;20031;-60
2021/06/23 13:30:53;;;;;;;12.32;4.93;;;;;;;;;;5092715;28;20020;-59
2021/06/23 13:33:19;;;;;;;14.15;4.78;;;;;;;;;;5092151;28;20391;-60
2021/06/23 13:35:45;;;;;;;12.20;4.57;;;;;;;;;;5091668;28;20082;-59
2021/06/23 13:38:11;;;;;;;11.35;4.53;;;;;;;;;;5092600;28;20020;-59
2021/06/23 13:40:37;;;;;;;13.63;4.25;;;;;;;;;;5092338;28;20035;-60
2021/06/23 13:43:03;;;;;;;7.85;3.95;;;;;;;;;;5092518;28;20028;-60
2021/06/23 13:45:29;;;;;;;10.05;4.22;;;;;;;;;;5092467;28;20024;-61
2021/06/23 13:47:55;;;;;;;11.38;4.25;;;;;;;;;;5092455;28;20402;-60
2021/06/23 13:50:21;;;;;;;8.85;4.05;;;;;;;;;;5092478;28;20027;-60
2021/06/23 13:52:48;;;;;;;17.48;4.07;;;;;;;;;;5092213;28;20039;-60
2021/06/23 13:55:23;;;;;;;9.20;4.28;;;;;;;;;;5092202;28;20122;-60
2021/06/23 13:57:52;;;;;;;9.45;4.13;;;;;;;;;;5071895;28;20060;-62
2021/06/23 14:00:18;;;;;;;12.55;4.32;;;;;;;;;;5072112;28;20077;-60
2021/06/23 14:02:44;;;;;;;13.48;3.80;;;;;;;;;;5072092;28;20024;-59
2021/06/23 14:05:10;;;;;;;9.25;4.10;;;;;;;;;;5072130;28;20017;-60
2021/06/23 14:07:37;;;;;;;10.13;4.25;;;;;;;;;;5072091;28;20472;-60
2021/06/23 14:10:04;;;;;;;11.98;4.20;;;;;;;;;;5072082;28;20037;-59
2021/06/23 14:12:31;;;;;;;11.75;4.22;;;;;;;;;;5071942;28;20100;-60
2021/06/23 14:14:57;;;;;;;13.95;4.65;;;;;;;;;;5071695;28;20086;-60
2021/06/23 14:17:23;;;;;;;11.52;3.95;;;;;;;;;;5071840;28;20021;-59
2021/06/23 14:19:49;;;;;;;10.35;4.25;;;;;;;;;;5071922;28;20098;-59
2021/06/23 14:22:15;;;;;;;7.13;3.35;;;;;;;;;;5071787;28;20031;-60
2021/06/23 14:24:41;;;;;;;13.65;4.72;;;;;;;;;;5071776;28;20028;-60
2021/06/23 14:27:07;;;;;;;11.05;4.20;;;;;;;;;;5071719;28;20012;-62
2021/06/23 14:29:33;;;;;;;13.18;3.67;;;;;;;;;;5071758;28;20032;-60
2021/06/23 14:31:59;;;;;;;12.45;3.92;;;;;;;;;;5071811;28;20016;-61
2021/06/23 14:34:25;;;;;;;11.25;4.70;;;;;;;;;;5071459;28;20039;-61
2021/06/23 14:36:51;;;;;;;12.93;4.30;;;;;;;;;;5071560;28;20033;-60
2021/06/23 14:39:18;;;;;;;10.27;4.45;;;;;;;;;;5071494;28;20020;-59
2021/06/23 14:41:44;;;;;;;10.88;4.65;;;;;;;;;;5071676;28;20032;-60
2021/06/23 14:44:10;;;;;;;11.70;4.07;;;;;;;;;;5071687;28;20472;-60
2021/06/23 14:46:36;;;;;;;12.20;4.68;;;;;;;;;;5071740;28;20025;-60